sensor_id;sensor_type;location;lat;lon;timestamp;P1;durP1;ratioP1;P2;durP2;ratioP2
53835;SDS011;39737;43.334;21.936;2023-12-22T00:02:45;25.02;;;14.10;;
53835;SDS011;39737;43.334;21.936;2023-12-22T00:05:32;31.83;;;17.58;;
53835;SDS011;39737;43.334;21.936;2023-12-22T00:08:18;34.65;;;17.10;;
53835;SDS011;39737;43.334;21.936;2023-12-22T00:11:08;42.70;;;16.92;;
53835;SDS011;39737;43.334;21.936;2023-12-22T00:13:54;40.35;;;17.52;;
53835;SDS011;39737;43.334;21.936;2023-12-22T00:16:41;35.95;;;18.58;;
53835;SDS011;39737;43.334;21.936;2023-12-22T00:19:27;30.40;;;17.88;;
53835;SDS011;39737;43.334;21.936;2023-12-22T00:22:13;45.92;;;23.75;;
53835;SDS011;39737;43.334;21.936;2023-12-22T00:25:00;41.70;;;18.42;;
53835;SDS011;39737;43.334;21.936;2023-12-22T00:27:47;42.20;;;13.90;;
53835;SDS011;39737;43.334;21.936;2023-12-22T00:30:33;19.55;;;12.75;;
53835;SDS011;39737;43.334;21.936;2023-12-22T00:33:22;11.35;;;9.02;;
53835;SDS011;39737;43.334;21.936;2023-12-22T00:36:12;21.75;;;9.35;;
53835;SDS011;39737;43.334;21.936;2023-12-22T00:38:58;13.77;;;9.13;;
53835;SDS011;39737;43.334;21.936;2023-12-22T00:41:44;21.40;;;10.63;;
53835;SDS011;39737;43.334;21.936;2023-12-22T00:44:31;16.05;;;11.15;;
53835;SDS011;39737;43.334;21.936;2023-12-22T00:47:17;18.80;;;10.75;;
53835;SDS011;39737;43.334;21.936;2023-12-22T00:50:03;34.92;;;9.93;;
53835;SDS011;39737;43.334;21.936;2023-12-22T00:52:51;19.33;;;9.45;;
53835;SDS011;39737;43.334;21.936;2023-12-22T00:55:37;15.30;;;9.98;;
53835;SDS011;39737;43.334;21.936;2023-12-22T00:58:24;29.35;;;9.00;;
53835;SDS011;39737;43.334;21.936;2023-12-22T01:01:10;13.88;;;9.85;;
53835;SDS011;39737;43.334;21.936;2023-12-22T01:03:58;17.25;;;8.30;;
53835;SDS011;39737;43.334;21.936;2023-12-22T01:06:44;14.90;;;9.15;;
53835;SDS011;39737;43.334;21.936;2023-12-22T01:09:31;20.10;;;9.10;;
53835;SDS011;39737;43.334;21.936;2023-12-22T01:12:19;15.13;;;9.60;;
53835;SDS011;39737;43.334;21.936;2023-12-22T01:15:06;21.48;;;11.07;;
53835;SDS011;39737;43.334;21.936;2023-12-22T01:17:52;17.00;;;8.93;;
53835;SDS011;39737;43.334;21.936;2023-12-22T01:20:39;16.08;;;10.32;;
53835;SDS011;39737;43.334;21.936;2023-12-22T01:23:26;27.52;;;10.82;;
53835;SDS011;39737;43.334;21.936;2023-12-22T01:26:12;18.48;;;12.50;;
53835;SDS011;39737;43.334;21.936;2023-12-22T01:29:01;19.60;;;10.30;;
53835;SDS011;39737;43.334;21.936;2023-12-22T01:31:47;22.20;;;9.45;;
53835;SDS011;39737;43.334;21.936;2023-12-22T01:34:33;20.85;;;10.00;;
53835;SDS011;39737;43.334;21.936;2023-12-22T01:37:20;16.77;;;10.80;;
53835;SDS011;39737;43.334;21.936;2023-12-22T01:40:10;25.08;;;12.52;;
53835;SDS011;39737;43.334;21.936;2023-12-22T01:42:57;32.97;;;10.07;;
53835;SDS011;39737;43.334;21.936;2023-12-22T01:45:43;12.65;;;8.90;;
53835;SDS011;39737;43.334;21.936;2023-12-22T01:48:30;34.78;;;9.30;;
53835;SDS011;39737;43.334;21.936;2023-12-22T01:51:17;21.50;;;12.00;;
53835;SDS011;39737;43.334;21.936;2023-12-22T01:54:03;44.13;;;10.15;;
53835;SDS011;39737;43.334;21.936;2023-12-22T01:56:50;22.08;;;11.75;;
53835;SDS011;39737;43.334;21.936;2023-12-22T01:59:36;13.85;;;8.70;;
53835;SDS011;39737;43.334;21.936;2023-12-22T02:02:23;19.35;;;12.27;;
53835;SDS011;39737;43.334;21.936;2023-12-22T02:05:09;29.80;;;10.73;;
53835;SDS011;39737;43.334;21.936;2023-12-22T02:07:58;26.08;;;12.20;;
53835;SDS011;39737;43.334;21.936;2023-12-22T02:10:45;35.70;;;12.13;;
53835;SDS011;39737;43.334;21.936;2023-12-22T02:13:31;12.27;;;9.25;;
53835;SDS011;39737;43.334;21.936;2023-12-22T02:22:12;11.88;;;6.85;;
53835;SDS011;39737;43.334;21.936;2023-12-22T02:24:59;19.25;;;5.45;;
53835;SDS011;39737;43.334;21.936;2023-12-22T02:27:58;14.75;;;5.30;;
53835;SDS011;39737;43.334;21.936;2023-12-22T02:30:58;2.90;;;2.58;;
53835;SDS011;39737;43.334;21.936;2023-12-22T02:33:47;5.35;;;4.65;;
53835;SDS011;39737;43.334;21.936;2023-12-22T02:36:35;3.03;;;2.83;;
53835;SDS011;39737;43.334;21.936;2023-12-22T02:39:22;2.20;;;2.10;;
53835;SDS011;39737;43.334;21.936;2023-12-22T02:42:08;1.95;;;1.63;;
53835;SDS011;39737;43.334;21.936;2023-12-22T02:44:59;3.35;;;2.80;;
53835;SDS011;39737;43.334;21.936;2023-12-22T02:47:46;3.90;;;2.97;;
53835;SDS011;39737;43.334;21.936;2023-12-22T02:50:33;4.45;;;3.97;;
53835;SDS011;39737;43.334;21.936;2023-12-22T02:53:19;3.92;;;2.13;;
53835;SDS011;39737;43.334;21.936;2023-12-22T02:56:05;11.68;;;4.28;;
53835;SDS011;39737;43.334;21.936;2023-12-22T02:58:52;2.63;;;2.40;;
53835;SDS011;39737;43.334;21.936;2023-12-22T03:01:38;5.43;;;3.47;;
53835;SDS011;39737;43.334;21.936;2023-12-22T03:04:24;1.83;;;1.73;;
53835;SDS011;39737;43.334;21.936;2023-12-22T03:07:10;1.90;;;1.80;;
53835;SDS011;39737;43.334;21.936;2023-12-22T03:09:57;5.15;;;2.70;;
53835;SDS011;39737;43.334;21.936;2023-12-22T03:12:43;4.25;;;2.13;;
53835;SDS011;39737;43.334;21.936;2023-12-22T03:15:29;7.32;;;2.45;;
53835;SDS011;39737;43.334;21.936;2023-12-22T03:18:15;3.40;;;2.15;;
53835;SDS011;39737;43.334;21.936;2023-12-22T03:21:02;1.88;;;1.75;;
53835;SDS011;39737;43.334;21.936;2023-12-22T03:23:48;6.47;;;2.70;;
53835;SDS011;39737;43.334;21.936;2023-12-22T03:26:35;4.38;;;2.13;;
53835;SDS011;39737;43.334;21.936;2023-12-22T03:29:21;1.83;;;1.73;;
53835;SDS011;39737;43.334;21.936;2023-12-22T03:32:08;6.45;;;4.18;;
53835;SDS011;39737;43.334;21.936;2023-12-22T03:34:54;5.47;;;3.65;;
53835;SDS011;39737;43.334;21.936;2023-12-22T03:37:40;8.05;;;3.72;;
53835;SDS011;39737;43.334;21.936;2023-12-22T03:40:26;13.23;;;4.45;;
53835;SDS011;39737;43.334;21.936;2023-12-22T03:43:15;4.90;;;4.50;;
53835;SDS011;39737;43.334;21.936;2023-12-22T03:46:01;2.65;;;2.45;;
53835;SDS011;39737;43.334;21.936;2023-12-22T03:48:49;7.22;;;1.98;;
53835;SDS011;39737;43.334;21.936;2023-12-22T03:51:35;2.30;;;2.03;;
53835;SDS011;39737;43.334;21.936;2023-12-22T03:54:21;3.08;;;2.38;;
53835;SDS011;39737;43.334;21.936;2023-12-22T03:57:07;2.63;;;2.42;;
53835;SDS011;39737;43.334;21.936;2023-12-22T03:59:54;3.15;;;2.50;;
53835;SDS011;39737;43.334;21.936;2023-12-22T04:02:40;1.95;;;1.85;;
53835;SDS011;39737;43.334;21.936;2023-12-22T04:05:27;2.08;;;1.98;;
53835;SDS011;39737;43.334;21.936;2023-12-22T04:08:13;1.55;;;1.50;;
53835;SDS011;39737;43.334;21.936;2023-12-22T04:11:00;1.88;;;1.73;;
53835;SDS011;39737;43.334;21.936;2023-12-22T04:13:46;2.83;;;1.73;;
53835;SDS011;39737;43.334;21.936;2023-12-22T04:16:33;6.20;;;3.67;;
53835;SDS011;39737;43.334;21.936;2023-12-22T04:19:19;3.72;;;2.47;;
53835;SDS011;39737;43.334;21.936;2023-12-22T04:22:05;1.90;;;1.80;;
53835;SDS011;39737;43.334;21.936;2023-12-22T04:24:52;1.45;;;1.42;;
53835;SDS011;39737;43.334;21.936;2023-12-22T04:27:39;6.18;;;2.97;;
53835;SDS011;39737;43.334;21.936;2023-12-22T04:30:26;1.30;;;1.20;;
53835;SDS011;39737;43.334;21.936;2023-12-22T04:33:18;2.80;;;2.55;;
53835;SDS011;39737;43.334;21.936;2023-12-22T04:36:06;2.55;;;1.85;;
53835;SDS011;39737;43.334;21.936;2023-12-22T04:38:52;1.48;;;1.27;;
53835;SDS011;39737;43.334;21.936;2023-12-22T04:41:38;3.30;;;2.40;;
53835;SDS011;39737;43.334;21.936;2023-12-22T04:44:25;3.05;;;2.50;;
53835;SDS011;39737;43.334;21.936;2023-12-22T04:47:13;5.15;;;2.53;;
53835;SDS011;39737;43.334;21.936;2023-12-22T04:49:59;2.25;;;2.05;;
53835;SDS011;39737;43.334;21.936;2023-12-22T04:52:46;2.33;;;1.50;;
53835;SDS011;39737;43.334;21.936;2023-12-22T04:55:32;2.10;;;1.73;;
53835;SDS011;39737;43.334;21.936;2023-12-22T04:58:19;3.95;;;2.05;;
53835;SDS011;39737;43.334;21.936;2023-12-22T05:01:05;48.22;;;3.03;;
53835;SDS011;39737;43.334;21.936;2023-12-22T05:03:52;2.50;;;2.33;;
53835;SDS011;39737;43.334;21.936;2023-12-22T05:06:40;2.17;;;1.20;;
53835;SDS011;39737;43.334;21.936;2023-12-22T05:09:26;2.63;;;2.42;;
53835;SDS011;39737;43.334;21.936;2023-12-22T05:12:14;1.10;;;1.10;;
53835;SDS011;39737;43.334;21.936;2023-12-22T05:15:00;2.65;;;1.77;;
53835;SDS011;39737;43.334;21.936;2023-12-22T05:17:47;1.33;;;1.20;;
53835;SDS011;39737;43.334;21.936;2023-12-22T05:20:33;5.85;;;2.22;;
53835;SDS011;39737;43.334;21.936;2023-12-22T05:23:20;1.40;;;1.30;;
53835;SDS011;39737;43.334;21.936;2023-12-22T05:26:07;6.35;;;2.97;;
53835;SDS011;39737;43.334;21.936;2023-12-22T05:28:54;3.42;;;2.38;;
53835;SDS011;39737;43.334;21.936;2023-12-22T05:31:40;3.70;;;3.10;;
53835;SDS011;39737;43.334;21.936;2023-12-22T05:34:29;6.72;;;5.10;;
53835;SDS011;39737;43.334;21.936;2023-12-22T05:37:15;15.88;;;9.60;;
53835;SDS011;39737;43.334;21.936;2023-12-22T05:40:04;29.15;;;9.85;;
53835;SDS011;39737;43.334;21.936;2023-12-22T05:42:53;31.30;;;14.45;;
53835;SDS011;39737;43.334;21.936;2023-12-22T05:45:39;30.27;;;15.88;;
53835;SDS011;39737;43.334;21.936;2023-12-22T05:48:26;21.73;;;12.20;;
53835;SDS011;39737;43.334;21.936;2023-12-22T05:51:13;30.33;;;14.43;;
53835;SDS011;39737;43.334;21.936;2023-12-22T05:53:59;21.42;;;13.68;;
53835;SDS011;39737;43.334;21.936;2023-12-22T05:56:46;22.75;;;14.35;;
53835;SDS011;39737;43.334;21.936;2023-12-22T05:59:32;21.25;;;12.73;;
53835;SDS011;39737;43.334;21.936;2023-12-22T06:02:19;17.58;;;11.60;;
53835;SDS011;39737;43.334;21.936;2023-12-22T06:05:06;11.20;;;7.13;;
53835;SDS011;39737;43.334;21.936;2023-12-22T06:07:53;8.45;;;5.55;;
53835;SDS011;39737;43.334;21.936;2023-12-22T06:10:39;10.00;;;6.03;;
53835;SDS011;39737;43.334;21.936;2023-12-22T06:13:26;11.32;;;6.90;;
53835;SDS011;39737;43.334;21.936;2023-12-22T06:16:13;95.15;;;47.55;;
53835;SDS011;39737;43.334;21.936;2023-12-22T06:19:00;117.18;;;51.00;;
53835;SDS011;39737;43.334;21.936;2023-12-22T06:21:46;31.02;;;19.70;;
53835;SDS011;39737;43.334;21.936;2023-12-22T06:24:34;34.67;;;16.42;;
53835;SDS011;39737;43.334;21.936;2023-12-22T06:27:20;20.45;;;10.52;;
53835;SDS011;39737;43.334;21.936;2023-12-22T06:30:07;31.13;;;11.57;;
53835;SDS011;39737;43.334;21.936;2023-12-22T06:32:56;17.70;;;8.40;;
53835;SDS011;39737;43.334;21.936;2023-12-22T06:35:43;12.52;;;9.50;;
53835;SDS011;39737;43.334;21.936;2023-12-22T06:38:30;16.13;;;7.30;;
53835;SDS011;39737;43.334;21.936;2023-12-22T06:41:19;5.57;;;4.43;;
53835;SDS011;39737;43.334;21.936;2023-12-22T06:44:08;16.77;;;10.43;;
53835;SDS011;39737;43.334;21.936;2023-12-22T06:46:56;24.40;;;13.27;;
53835;SDS011;39737;43.334;21.936;2023-12-22T06:49:42;47.90;;;20.23;;
53835;SDS011;39737;43.334;21.936;2023-12-22T06:52:28;72.32;;;24.83;;
53835;SDS011;39737;43.334;21.936;2023-12-22T06:55:16;66.88;;;26.83;;
53835;SDS011;39737;43.334;21.936;2023-12-22T06:58:03;51.30;;;23.38;;
53835;SDS011;39737;43.334;21.936;2023-12-22T07:00:52;20.17;;;11.93;;
53835;SDS011;39737;43.334;21.936;2023-12-22T07:03:39;26.70;;;10.90;;
53835;SDS011;39737;43.334;21.936;2023-12-22T07:06:27;10.63;;;9.65;;
53835;SDS011;39737;43.334;21.936;2023-12-22T07:12:05;16.13;;;10.77;;
53835;SDS011;39737;43.334;21.936;2023-12-22T07:14:53;22.35;;;14.73;;
53835;SDS011;39737;43.334;21.936;2023-12-22T07:17:40;27.67;;;16.42;;
53835;SDS011;39737;43.334;21.936;2023-12-22T07:20:26;57.83;;;21.73;;
53835;SDS011;39737;43.334;21.936;2023-12-22T07:23:14;43.92;;;16.60;;
53835;SDS011;39737;43.334;21.936;2023-12-22T07:26:01;56.40;;;21.60;;
53835;SDS011;39737;43.334;21.936;2023-12-22T07:28:57;31.40;;;19.13;;
53835;SDS011;39737;43.334;21.936;2023-12-22T07:31:44;30.65;;;10.50;;
53835;SDS011;39737;43.334;21.936;2023-12-22T07:34:32;17.63;;;8.05;;
53835;SDS011;39737;43.334;21.936;2023-12-22T07:37:23;17.90;;;10.07;;
53835;SDS011;39737;43.334;21.936;2023-12-22T07:40:10;68.20;;;35.08;;
53835;SDS011;39737;43.334;21.936;2023-12-22T07:42:59;250.70;;;112.78;;
53835;SDS011;39737;43.334;21.936;2023-12-22T07:45:45;177.13;;;86.45;;
53835;SDS011;39737;43.334;21.936;2023-12-22T07:48:33;72.97;;;45.17;;
53835;SDS011;39737;43.334;21.936;2023-12-22T07:51:19;96.85;;;44.00;;
53835;SDS011;39737;43.334;21.936;2023-12-22T07:54:06;39.97;;;24.17;;
53835;SDS011;39737;43.334;21.936;2023-12-22T07:56:53;29.27;;;18.85;;
53835;SDS011;39737;43.334;21.936;2023-12-22T07:59:39;49.33;;;19.15;;
53835;SDS011;39737;43.334;21.936;2023-12-22T08:02:25;38.40;;;20.23;;
53835;SDS011;39737;43.334;21.936;2023-12-22T08:05:14;38.42;;;18.45;;
53835;SDS011;39737;43.334;21.936;2023-12-22T08:08:01;36.15;;;19.92;;
53835;SDS011;39737;43.334;21.936;2023-12-22T08:10:49;28.85;;;16.40;;
53835;SDS011;39737;43.334;21.936;2023-12-22T08:13:35;39.28;;;15.60;;
53835;SDS011;39737;43.334;21.936;2023-12-22T08:16:21;28.98;;;17.27;;
53835;SDS011;39737;43.334;21.936;2023-12-22T08:19:08;35.08;;;13.70;;
53835;SDS011;39737;43.334;21.936;2023-12-22T08:21:56;40.88;;;15.20;;
53835;SDS011;39737;43.334;21.936;2023-12-22T08:24:46;21.67;;;10.75;;
53835;SDS011;39737;43.334;21.936;2023-12-22T08:27:33;19.80;;;10.65;;
53835;SDS011;39737;43.334;21.936;2023-12-22T08:30:23;36.72;;;17.55;;
53835;SDS011;39737;43.334;21.936;2023-12-22T08:33:11;21.52;;;13.70;;
53835;SDS011;39737;43.334;21.936;2023-12-22T08:35:59;21.60;;;17.83;;
53835;SDS011;39737;43.334;21.936;2023-12-22T08:38:46;48.60;;;22.20;;
53835;SDS011;39737;43.334;21.936;2023-12-22T08:41:33;25.13;;;17.63;;
53835;SDS011;39737;43.334;21.936;2023-12-22T08:44:22;40.88;;;14.63;;
53835;SDS011;39737;43.334;21.936;2023-12-22T08:47:08;13.32;;;9.52;;
53835;SDS011;39737;43.334;21.936;2023-12-22T08:49:55;20.45;;;11.23;;
53835;SDS011;39737;43.334;21.936;2023-12-22T08:52:41;27.55;;;15.50;;
53835;SDS011;39737;43.334;21.936;2023-12-22T08:55:27;27.60;;;14.57;;
53835;SDS011;39737;43.334;21.936;2023-12-22T08:58:13;19.95;;;12.00;;
53835;SDS011;39737;43.334;21.936;2023-12-22T09:01:00;32.00;;;16.95;;
53835;SDS011;39737;43.334;21.936;2023-12-22T09:03:46;19.92;;;13.73;;
53835;SDS011;39737;43.334;21.936;2023-12-22T09:06:38;19.00;;;12.70;;
53835;SDS011;39737;43.334;21.936;2023-12-22T09:09:25;21.55;;;11.45;;
53835;SDS011;39737;43.334;21.936;2023-12-22T09:12:12;15.55;;;9.77;;
53835;SDS011;39737;43.334;21.936;2023-12-22T09:14:58;21.60;;;13.25;;
53835;SDS011;39737;43.334;21.936;2023-12-22T09:17:45;19.63;;;11.75;;
53835;SDS011;39737;43.334;21.936;2023-12-22T09:20:32;13.82;;;9.20;;
53835;SDS011;39737;43.334;21.936;2023-12-22T09:23:19;16.92;;;10.43;;
53835;SDS011;39737;43.334;21.936;2023-12-22T09:26:07;20.00;;;10.10;;
53835;SDS011;39737;43.334;21.936;2023-12-22T09:28:53;17.90;;;11.13;;
53835;SDS011;39737;43.334;21.936;2023-12-22T09:31:40;14.63;;;8.18;;
53835;SDS011;39737;43.334;21.936;2023-12-22T09:34:27;7.22;;;6.40;;
53835;SDS011;39737;43.334;21.936;2023-12-22T09:37:14;5.35;;;4.90;;
53835;SDS011;39737;43.334;21.936;2023-12-22T09:40:00;11.48;;;4.07;;
53835;SDS011;39737;43.334;21.936;2023-12-22T09:42:54;8.93;;;7.13;;
53835;SDS011;39737;43.334;21.936;2023-12-22T09:45:43;12.98;;;5.78;;
53835;SDS011;39737;43.334;21.936;2023-12-22T09:48:30;7.47;;;4.63;;
53835;SDS011;39737;43.334;21.936;2023-12-22T09:51:17;14.50;;;8.05;;
53835;SDS011;39737;43.334;21.936;2023-12-22T09:54:03;9.90;;;5.30;;
53835;SDS011;39737;43.334;21.936;2023-12-22T09:57:04;23.67;;;9.38;;
53835;SDS011;39737;43.334;21.936;2023-12-22T10:00:08;14.63;;;10.02;;
53835;SDS011;39737;43.334;21.936;2023-12-22T10:02:55;21.40;;;9.60;;
53835;SDS011;39737;43.334;21.936;2023-12-22T10:05:44;10.10;;;6.55;;
53835;SDS011;39737;43.334;21.936;2023-12-22T10:08:38;22.52;;;10.00;;
53835;SDS011;39737;43.334;21.936;2023-12-22T10:11:26;10.98;;;7.75;;
53835;SDS011;39737;43.334;21.936;2023-12-22T10:14:15;8.25;;;6.05;;
53835;SDS011;39737;43.334;21.936;2023-12-22T10:17:07;43.50;;;20.73;;
53835;SDS011;39737;43.334;21.936;2023-12-22T10:19:57;12.57;;;7.13;;
53835;SDS011;39737;43.334;21.936;2023-12-22T10:22:43;13.70;;;6.72;;
53835;SDS011;39737;43.334;21.936;2023-12-22T10:25:30;24.45;;;10.20;;
53835;SDS011;39737;43.334;21.936;2023-12-22T10:28:17;17.23;;;10.77;;
53835;SDS011;39737;43.334;21.936;2023-12-22T10:31:08;20.80;;;11.98;;
53835;SDS011;39737;43.334;21.936;2023-12-22T10:33:55;25.73;;;14.40;;
53835;SDS011;39737;43.334;21.936;2023-12-22T10:36:41;35.22;;;15.95;;
53835;SDS011;39737;43.334;21.936;2023-12-22T10:39:28;30.88;;;13.60;;
53835;SDS011;39737;43.334;21.936;2023-12-22T10:42:17;13.93;;;10.23;;
53835;SDS011;39737;43.334;21.936;2023-12-22T10:45:03;12.20;;;9.50;;
53835;SDS011;39737;43.334;21.936;2023-12-22T10:47:50;13.70;;;11.88;;
53835;SDS011;39737;43.334;21.936;2023-12-22T10:50:39;28.20;;;14.48;;
53835;SDS011;39737;43.334;21.936;2023-12-22T10:53:26;10.68;;;7.90;;
53835;SDS011;39737;43.334;21.936;2023-12-22T10:56:12;48.95;;;28.35;;
53835;SDS011;39737;43.334;21.936;2023-12-22T10:59:00;13.90;;;7.70;;
53835;SDS011;39737;43.334;21.936;2023-12-22T11:01:51;18.50;;;8.80;;
53835;SDS011;39737;43.334;21.936;2023-12-22T11:04:37;15.45;;;9.80;;
53835;SDS011;39737;43.334;21.936;2023-12-22T11:07:29;24.42;;;13.73;;
53835;SDS011;39737;43.334;21.936;2023-12-22T11:10:20;65.35;;;31.50;;
53835;SDS011;39737;43.334;21.936;2023-12-22T11:13:07;35.00;;;13.27;;
53835;SDS011;39737;43.334;21.936;2023-12-22T11:15:56;15.23;;;11.73;;
53835;SDS011;39737;43.334;21.936;2023-12-22T11:18:53;14.07;;;11.20;;
53835;SDS011;39737;43.334;21.936;2023-12-22T11:21:43;15.38;;;9.02;;
53835;SDS011;39737;43.334;21.936;2023-12-22T11:24:35;39.40;;;9.15;;
53835;SDS011;39737;43.334;21.936;2023-12-22T11:27:26;19.15;;;6.35;;
53835;SDS011;39737;43.334;21.936;2023-12-22T11:30:15;11.65;;;5.47;;
53835;SDS011;39737;43.334;21.936;2023-12-22T11:33:02;49.40;;;20.98;;
53835;SDS011;39737;43.334;21.936;2023-12-22T11:35:50;143.52;;;56.83;;
53835;SDS011;39737;43.334;21.936;2023-12-22T11:38:42;51.67;;;19.42;;
53835;SDS011;39737;43.334;21.936;2023-12-22T11:41:38;21.17;;;8.95;;
53835;SDS011;39737;43.334;21.936;2023-12-22T11:44:29;13.60;;;6.77;;
53835;SDS011;39737;43.334;21.936;2023-12-22T11:47:16;8.52;;;6.95;;
53835;SDS011;39737;43.334;21.936;2023-12-22T11:50:09;10.63;;;7.35;;
53835;SDS011;39737;43.334;21.936;2023-12-22T11:56:06;7.93;;;6.60;;
53835;SDS011;39737;43.334;21.936;2023-12-22T11:58:54;17.33;;;11.65;;
53835;SDS011;39737;43.334;21.936;2023-12-22T12:01:44;18.13;;;9.55;;
53835;SDS011;39737;43.334;21.936;2023-12-22T12:04:40;18.90;;;8.95;;
53835;SDS011;39737;43.334;21.936;2023-12-22T12:07:42;18.25;;;6.82;;
53835;SDS011;39737;43.334;21.936;2023-12-22T12:13:23;8.32;;;6.40;;
53835;SDS011;39737;43.334;21.936;2023-12-22T12:16:19;23.88;;;11.38;;
53835;SDS011;39737;43.334;21.936;2023-12-22T12:19:22;15.77;;;8.68;;
53835;SDS011;39737;43.334;21.936;2023-12-22T12:26:21;18.60;;;8.60;;
53835;SDS011;39737;43.334;21.936;2023-12-22T12:33:45;46.85;;;11.65;;
53835;SDS011;39737;43.334;21.936;2023-12-22T12:40:50;13.15;;;5.78;;
53835;SDS011;39737;43.334;21.936;2023-12-22T12:43:37;13.73;;;8.10;;
53835;SDS011;39737;43.334;21.936;2023-12-22T12:46:34;11.60;;;7.78;;
53835;SDS011;39737;43.334;21.936;2023-12-22T12:49:21;13.20;;;7.70;;
53835;SDS011;39737;43.334;21.936;2023-12-22T12:52:11;14.77;;;10.65;;
53835;SDS011;39737;43.334;21.936;2023-12-22T12:54:58;17.60;;;12.38;;
53835;SDS011;39737;43.334;21.936;2023-12-22T12:57:50;19.48;;;11.77;;
53835;SDS011;39737;43.334;21.936;2023-12-22T13:01:24;30.08;;;9.07;;
53835;SDS011;39737;43.334;21.936;2023-12-22T13:04:21;43.25;;;15.60;;
53835;SDS011;39737;43.334;21.936;2023-12-22T13:07:10;15.10;;;9.02;;
53835;SDS011;39737;43.334;21.936;2023-12-22T13:09:59;19.75;;;7.10;;
53835;SDS011;39737;43.334;21.936;2023-12-22T13:12:49;19.35;;;12.40;;
53835;SDS011;39737;43.334;21.936;2023-12-22T13:15:41;30.08;;;15.30;;
53835;SDS011;39737;43.334;21.936;2023-12-22T13:28:06;17.05;;;13.48;;
53835;SDS011;39737;43.334;21.936;2023-12-22T13:30:53;21.42;;;12.80;;
53835;SDS011;39737;43.334;21.936;2023-12-22T13:33:42;32.60;;;15.15;;
53835;SDS011;39737;43.334;21.936;2023-12-22T13:36:33;19.73;;;15.20;;
53835;SDS011;39737;43.334;21.936;2023-12-22T13:39:25;48.28;;;14.75;;
53835;SDS011;39737;43.334;21.936;2023-12-22T13:42:17;51.72;;;24.35;;
53835;SDS011;39737;43.334;21.936;2023-12-22T13:45:26;55.28;;;22.48;;
53835;SDS011;39737;43.334;21.936;2023-12-22T13:48:15;35.35;;;20.60;;
53835;SDS011;39737;43.334;21.936;2023-12-22T13:56:02;44.00;;;18.92;;
53835;SDS011;39737;43.334;21.936;2023-12-22T14:11:03;32.05;;;21.33;;
53835;SDS011;39737;43.334;21.936;2023-12-22T14:13:59;34.35;;;20.33;;
53835;SDS011;39737;43.334;21.936;2023-12-22T14:16:53;56.38;;;22.42;;
53835;SDS011;39737;43.334;21.936;2023-12-22T14:19:43;39.80;;;22.17;;
53835;SDS011;39737;43.334;21.936;2023-12-22T14:27:03;39.65;;;22.00;;
53835;SDS011;39737;43.334;21.936;2023-12-22T14:30:25;37.28;;;21.27;;
53835;SDS011;39737;43.334;21.936;2023-12-22T14:33:29;36.05;;;21.88;;
53835;SDS011;39737;43.334;21.936;2023-12-22T14:37:48;21.75;;;10.05;;
53835;SDS011;39737;43.334;21.936;2023-12-22T15:01:30;11.55;;;7.40;;
53835;SDS011;39737;43.334;21.936;2023-12-22T15:05:42;8.13;;;5.63;;
53835;SDS011;39737;43.334;21.936;2023-12-22T15:22:10;8.82;;;6.80;;
53835;SDS011;39737;43.334;21.936;2023-12-22T15:24:56;10.98;;;7.13;;
53835;SDS011;39737;43.334;21.936;2023-12-22T15:27:42;13.98;;;8.88;;
53835;SDS011;39737;43.334;21.936;2023-12-22T15:30:29;10.27;;;7.85;;
53835;SDS011;39737;43.334;21.936;2023-12-22T15:33:16;8.02;;;7.22;;
53835;SDS011;39737;43.334;21.936;2023-12-22T15:36:02;15.07;;;8.00;;
53835;SDS011;39737;43.334;21.936;2023-12-22T15:38:49;10.85;;;7.75;;
53835;SDS011;39737;43.334;21.936;2023-12-22T15:41:35;13.23;;;7.00;;
53835;SDS011;39737;43.334;21.936;2023-12-22T15:44:21;15.65;;;8.77;;
53835;SDS011;39737;43.334;21.936;2023-12-22T15:47:07;17.42;;;12.40;;
53835;SDS011;39737;43.334;21.936;2023-12-22T15:49:54;16.75;;;13.65;;
53835;SDS011;39737;43.334;21.936;2023-12-22T15:52:43;20.40;;;16.08;;
53835;SDS011;39737;43.334;21.936;2023-12-22T15:55:29;43.03;;;19.63;;
53835;SDS011;39737;43.334;21.936;2023-12-22T15:58:18;78.45;;;37.40;;
53835;SDS011;39737;43.334;21.936;2023-12-22T16:01:05;134.65;;;62.53;;
53835;SDS011;39737;43.334;21.936;2023-12-22T16:03:51;35.42;;;14.98;;
53835;SDS011;39737;43.334;21.936;2023-12-22T16:06:38;29.95;;;14.98;;
53835;SDS011;39737;43.334;21.936;2023-12-22T16:09:24;17.55;;;11.48;;
53835;SDS011;39737;43.334;21.936;2023-12-22T16:12:11;10.27;;;9.30;;
53835;SDS011;39737;43.334;21.936;2023-12-22T16:14:58;11.00;;;8.35;;
53835;SDS011;39737;43.334;21.936;2023-12-22T16:17:48;26.42;;;15.27;;
53835;SDS011;39737;43.334;21.936;2023-12-22T16:20:35;52.40;;;23.40;;
53835;SDS011;39737;43.334;21.936;2023-12-22T16:23:21;17.30;;;12.70;;
53835;SDS011;39737;43.334;21.936;2023-12-22T16:26:08;18.88;;;13.82;;
53835;SDS011;39737;43.334;21.936;2023-12-22T16:28:54;18.85;;;8.60;;
53835;SDS011;39737;43.334;21.936;2023-12-22T16:31:40;8.63;;;6.80;;
53835;SDS011;39737;43.334;21.936;2023-12-22T16:34:26;19.02;;;8.70;;
53835;SDS011;39737;43.334;21.936;2023-12-22T16:37:12;16.48;;;10.35;;
53835;SDS011;39737;43.334;21.936;2023-12-22T16:39:59;10.73;;;9.48;;
53835;SDS011;39737;43.334;21.936;2023-12-22T16:42:50;28.60;;;9.02;;
53835;SDS011;39737;43.334;21.936;2023-12-22T16:45:45;9.50;;;7.45;;
53835;SDS011;39737;43.334;21.936;2023-12-22T16:48:32;10.15;;;7.13;;
53835;SDS011;39737;43.334;21.936;2023-12-22T16:51:18;9.30;;;5.35;;
53835;SDS011;39737;43.334;21.936;2023-12-22T16:54:04;16.67;;;6.20;;
53835;SDS011;39737;43.334;21.936;2023-12-22T16:56:51;30.92;;;7.35;;
53835;SDS011;39737;43.334;21.936;2023-12-22T16:59:37;10.63;;;7.15;;
53835;SDS011;39737;43.334;21.936;2023-12-22T17:02:33;6.65;;;6.07;;
53835;SDS011;39737;43.334;21.936;2023-12-22T17:05:21;8.95;;;7.03;;
53835;SDS011;39737;43.334;21.936;2023-12-22T17:08:09;7.18;;;5.82;;
53835;SDS011;39737;43.334;21.936;2023-12-22T17:10:56;12.38;;;7.00;;
53835;SDS011;39737;43.334;21.936;2023-12-22T17:13:42;9.43;;;6.10;;
53835;SDS011;39737;43.334;21.936;2023-12-22T17:16:28;9.60;;;5.75;;
53835;SDS011;39737;43.334;21.936;2023-12-22T17:19:15;8.77;;;4.55;;
53835;SDS011;39737;43.334;21.936;2023-12-22T17:22:02;6.45;;;5.20;;
53835;SDS011;39737;43.334;21.936;2023-12-22T17:24:48;6.28;;;5.13;;
53835;SDS011;39737;43.334;21.936;2023-12-22T17:27:34;7.97;;;6.07;;
53835;SDS011;39737;43.334;21.936;2023-12-22T17:30:24;6.28;;;5.40;;
53835;SDS011;39737;43.334;21.936;2023-12-22T17:33:10;10.18;;;5.80;;
53835;SDS011;39737;43.334;21.936;2023-12-22T17:35:57;9.27;;;6.07;;
53835;SDS011;39737;43.334;21.936;2023-12-22T17:38:43;8.15;;;6.60;;
53835;SDS011;39737;43.334;21.936;2023-12-22T17:41:30;27.17;;;11.50;;
53835;SDS011;39737;43.334;21.936;2023-12-22T17:44:16;40.45;;;13.30;;
53835;SDS011;39737;43.334;21.936;2023-12-22T17:47:02;20.40;;;13.45;;
53835;SDS011;39737;43.334;21.936;2023-12-22T17:49:51;51.55;;;20.05;;
53835;SDS011;39737;43.334;21.936;2023-12-22T17:52:37;29.77;;;17.42;;
53835;SDS011;39737;43.334;21.936;2023-12-22T17:55:24;47.83;;;19.27;;
53835;SDS011;39737;43.334;21.936;2023-12-22T17:58:10;45.65;;;24.48;;